createdAt,value
2022-10-17T00:01:09.304Z,15.08
2022-10-17T00:03:39.110Z,15.08
2022-10-17T00:06:08.712Z,15.08
2022-10-17T00:08:37.618Z,15.00
2022-10-17T00:11:07.800Z,15.00
2022-10-17T00:13:37.391Z,15.03
2022-10-17T00:16:06.165Z,15.06
2022-10-17T00:18:34.366Z,15.07
2022-10-17T00:21:02.643Z,15.06
2022-10-17T00:23:31.349Z,15.09
2022-10-17T00:26:00.563Z,15.01
2022-10-17T00:28:28.959Z,15.03
2022-10-17T00:31:00.771Z,15.02
2022-10-17T00:33:29.915Z,15.00
2022-10-17T00:36:05.501Z,15.00
2022-10-17T00:38:33.965Z,14.95
2022-10-17T00:41:02.181Z,14.97
2022-10-17T00:43:30.803Z,14.95
2022-10-17T00:46:01.036Z,14.93
2022-10-17T00:48:29.410Z,14.95
2022-10-17T00:50:57.783Z,14.93
2022-10-17T00:53:27.249Z,14.95
2022-10-17T00:55:55.724Z,14.89
2022-10-17T00:58:24.282Z,14.87
2022-10-17T01:00:52.749Z,14.86
2022-10-17T01:03:22.468Z,14.93
2022-10-17T01:05:51.276Z,14.88
2022-10-17T01:08:19.647Z,14.86
2022-10-17T01:10:59.422Z,14.82
2022-10-17T01:13:35.118Z,14.84
2022-10-17T01:16:12.707Z,14.80
2022-10-17T01:18:55.683Z,14.81
2022-10-17T01:21:33.925Z,14.78
2022-10-17T01:24:33.424Z,14.77
2022-10-17T01:27:46.755Z,14.72
2022-10-17T01:30:48.419Z,14.65
2022-10-17T01:33:25.103Z,14.62
2022-10-17T01:36:03.239Z,14.62
2022-10-17T01:38:39.141Z,14.65
2022-10-17T01:41:13.724Z,14.63
2022-10-17T01:43:48.175Z,14.68
2022-10-17T01:46:21.885Z,14.66
2022-10-17T01:48:51.407Z,14.66
2022-10-17T01:51:24.276Z,14.67
2022-10-17T01:53:58.245Z,14.66
2022-10-17T01:56:29.085Z,14.67
2022-10-17T01:59:01.616Z,14.73
2022-10-17T02:01:33.198Z,14.73
2022-10-17T02:04:05.065Z,14.78
2022-10-17T02:06:36.138Z,14.74
2022-10-17T02:09:18.165Z,14.72
2022-10-17T02:12:01.268Z,14.75
2022-10-17T02:14:43.101Z,14.77
2022-10-17T02:17:21.654Z,14.74
2022-10-17T02:20:00.656Z,14.80
2022-10-17T02:22:38.951Z,14.81
2022-10-17T02:25:15.490Z,14.80
2022-10-17T02:27:49.117Z,14.74
2022-10-17T02:30:24.755Z,14.72
2022-10-17T02:32:59.311Z,14.74
2022-10-17T02:35:33.567Z,14.83
2022-10-17T02:38:04.969Z,14.87
2022-10-17T02:40:34.111Z,14.86
2022-10-17T02:43:02.294Z,14.87
2022-10-17T02:45:35.995Z,14.93
2022-10-17T02:48:10.714Z,14.96
2022-10-17T02:50:49.977Z,15.06
2022-10-17T02:53:26.190Z,15.06
2022-10-17T02:56:00.613Z,15.08
2022-10-17T02:58:34.010Z,15.08
2022-10-17T03:01:03.524Z,15.06
2022-10-17T03:03:33.447Z,15.07
2022-10-17T03:06:04.536Z,15.12
2022-10-17T03:08:32.825Z,15.19
2022-10-17T03:11:02.130Z,15.23
2022-10-17T03:13:33.033Z,15.32
2022-10-17T03:16:03.234Z,15.45
2022-10-17T03:18:33.992Z,15.54
2022-10-17T03:21:05.787Z,15.66
2022-10-17T03:23:34.105Z,15.77
2022-10-17T03:26:05.170Z,15.86
2022-10-17T03:28:35.429Z,15.98
2022-10-17T03:31:08.642Z,15.96
2022-10-17T03:33:38.515Z,16.08
2022-10-17T03:36:09.730Z,16.19
2022-10-17T03:38:38.481Z,16.28
2022-10-17T03:41:08.001Z,16.31
2022-10-17T03:43:37.647Z,16.34
2022-10-17T03:46:05.921Z,16.43
2022-10-17T03:48:35.491Z,16.48
2022-10-17T03:51:06.921Z,16.50
2022-10-17T03:53:40.835Z,16.46
2022-10-17T03:56:14.110Z,16.50
2022-10-17T03:58:43.289Z,16.60
2022-10-17T04:01:15.905Z,16.62
2022-10-17T04:03:45.239Z,16.58
2022-10-17T04:06:14.317Z,16.57
2022-10-17T04:08:47.141Z,16.52
2022-10-17T04:11:22.082Z,16.48
2022-10-17T04:13:55.017Z,16.60
2022-10-17T04:16:24.686Z,16.62
2022-10-17T04:19:00.951Z,16.65
2022-10-17T04:21:33.161Z,16.66
2022-10-17T04:24:07.835Z,16.72
2022-10-17T04:26:45.831Z,16.69
2022-10-17T04:29:15.329Z,16.70
2022-10-17T04:31:45.635Z,16.63
2022-10-17T04:34:36.691Z,16.60
2022-10-17T04:37:04.923Z,16.56
2022-10-17T04:39:35.926Z,16.52
2022-10-17T04:42:05.000Z,16.52
2022-10-17T04:44:35.432Z,16.55
2022-10-17T04:47:03.742Z,16.54
2022-10-17T04:49:32.249Z,16.60
2022-10-17T04:52:08.793Z,16.57
2022-10-17T04:54:48.442Z,16.60
2022-10-17T04:57:16.815Z,16.50
2022-10-17T04:59:53.034Z,16.41
2022-10-17T05:02:52.557Z,16.36
2022-10-17T05:05:21.553Z,16.33
2022-10-17T05:07:52.822Z,16.45
2022-10-17T05:10:26.342Z,16.46
2022-10-17T05:12:56.050Z,16.52
2022-10-17T05:15:27.753Z,16.54
2022-10-17T05:17:57.192Z,16.56
2022-10-17T05:20:28.068Z,16.60
2022-10-17T05:22:56.335Z,16.54
2022-10-17T05:25:26.199Z,16.57
2022-10-17T05:27:55.240Z,16.52
2022-10-17T05:30:24.221Z,16.50
2022-10-17T05:32:57.545Z,16.52
2022-10-17T05:35:26.126Z,16.54
2022-10-17T05:37:54.621Z,16.65
2022-10-17T05:40:26.648Z,16.64
2022-10-17T05:42:55.941Z,16.63
2022-10-17T05:45:26.342Z,16.56
2022-10-17T05:47:54.545Z,16.62
2022-10-17T05:50:24.284Z,16.71
2022-10-17T05:53:06.734Z,16.75
2022-10-17T05:55:41.816Z,16.74
2022-10-17T05:58:17.631Z,16.67
2022-10-17T06:00:59.411Z,16.66
2022-10-17T06:03:28.833Z,16.61
2022-10-17T06:05:57.531Z,16.65
2022-10-17T06:08:26.151Z,16.66
2022-10-17T06:10:55.930Z,16.66
2022-10-17T06:13:24.158Z,16.71
2022-10-17T06:15:53.806Z,16.66
2022-10-17T06:18:22.425Z,16.64
2022-10-17T06:20:51.102Z,16.66
2022-10-17T06:23:21.163Z,16.70
2022-10-17T06:26:00.938Z,16.71
2022-10-17T06:28:31.071Z,16.69
2022-10-17T06:30:59.623Z,16.63
2022-10-17T06:33:28.500Z,16.62
2022-10-17T06:35:57.725Z,16.56
2022-10-17T06:38:27.176Z,16.52
2022-10-17T06:41:08.337Z,16.55
2022-10-17T06:43:37.306Z,16.51
2022-10-17T06:46:26.768Z,16.48
2022-10-17T06:49:01.046Z,16.42
2022-10-17T06:51:49.484Z,16.45
2022-10-17T06:54:20.736Z,16.41
2022-10-17T06:56:54.240Z,16.37
2022-10-17T06:59:40.792Z,16.36
2022-10-17T07:02:15.071Z,16.36
2022-10-17T07:04:47.172Z,16.31
2022-10-17T07:07:15.559Z,16.31
2022-10-17T07:09:43.816Z,16.31
2022-10-17T07:12:13.379Z,16.29
2022-10-17T07:14:47.384Z,16.28
2022-10-17T07:17:15.632Z,16.27
2022-10-17T07:19:44.536Z,16.24
2022-10-17T07:22:14.016Z,16.24
2022-10-17T07:24:45.870Z,16.20
2022-10-17T07:27:39.824Z,16.21
2022-10-17T07:30:09.862Z,16.24
2022-10-17T07:32:40.621Z,16.24
2022-10-17T07:35:10.860Z,16.22
2022-10-17T07:37:40.191Z,16.20
2022-10-17T07:40:09.987Z,16.18
2022-10-17T07:45:15.678Z,16.15
2022-10-17T07:47:44.503Z,16.15
2022-10-17T07:50:16.515Z,16.16
2022-10-17T07:52:44.885Z,16.16
2022-10-17T07:55:13.145Z,16.16
2022-10-17T07:57:42.758Z,16.21
2022-10-17T08:00:11.695Z,16.15
2022-10-17T08:02:42.797Z,16.13
2022-10-17T08:05:10.992Z,16.11
2022-10-17T08:07:40.353Z,16.11
2022-10-17T08:12:44.312Z,16.11
2022-10-17T08:15:13.063Z,16.07
2022-10-17T08:17:41.477Z,16.05
2022-10-17T08:20:11.505Z,16.08
2022-10-17T08:22:39.650Z,16.11
2022-10-17T08:25:08.848Z,16.08
2022-10-17T08:27:37.077Z,16.05
2022-10-17T08:30:07.556Z,16.05
2022-10-17T08:32:35.718Z,16.06
2022-10-17T08:35:03.918Z,16.10
2022-10-17T08:37:32.771Z,16.14
2022-10-17T08:40:01.137Z,16.20
2022-10-17T08:43:06.427Z,16.22
2022-10-17T08:45:40.017Z,16.30
2022-10-17T08:48:13.653Z,16.14
2022-10-17T08:50:45.395Z,16.13
2022-10-17T08:53:19.170Z,16.11
2022-10-17T08:55:48.680Z,16.12
2022-10-17T08:58:21.105Z,16.18
2022-10-17T09:00:59.170Z,16.22
2022-10-17T09:03:45.087Z,16.22
2022-10-17T09:06:24.757Z,16.18
2022-10-17T09:09:04.105Z,16.15
2022-10-17T09:11:54.291Z,16.18
2022-10-17T09:14:58.943Z,16.18
2022-10-17T09:17:39.421Z,16.17
2022-10-17T09:20:14.128Z,16.18
2022-10-17T09:22:48.828Z,16.31
2022-10-17T09:25:20.397Z,16.32
2022-10-17T09:27:51.013Z,16.35
2022-10-17T09:30:45.839Z,16.30
2022-10-17T09:33:34.301Z,16.25
2022-10-17T09:36:06.068Z,16.19
2022-10-17T09:38:40.675Z,16.18
2022-10-17T09:41:43.020Z,16.19
2022-10-17T09:44:16.838Z,16.15
2022-10-17T09:46:56.946Z,16.17
2022-10-17T09:49:32.786Z,16.17
2022-10-17T09:52:02.333Z,16.14
2022-10-17T09:54:41.395Z,16.15
2022-10-17T09:57:11.467Z,16.22
2022-10-17T09:59:41.459Z,16.26
2022-10-17T10:02:15.861Z,16.32
2022-10-17T10:05:06.454Z,16.34
2022-10-17T10:07:37.294Z,16.31
2022-10-17T10:10:11.064Z,16.29
2022-10-17T10:12:40.479Z,16.31
2022-10-17T10:15:34.809Z,16.31
2022-10-17T10:18:03.018Z,16.30
2022-10-17T10:20:35.453Z,16.31
2022-10-17T10:23:11.949Z,16.35
2022-10-17T10:25:50.069Z,16.33
2022-10-17T10:28:18.767Z,16.41
2022-10-17T10:30:52.076Z,16.32
2022-10-17T10:33:21.934Z,16.45
2022-10-17T10:35:57.838Z,16.54
2022-10-17T10:38:26.490Z,16.52
2022-10-17T10:40:56.694Z,16.72
2022-10-17T10:43:34.229Z,16.80
2022-10-17T10:46:03.472Z,17.01
2022-10-17T10:48:35.297Z,17.23
2022-10-17T10:51:09.106Z,17.24
2022-10-17T10:53:46.748Z,17.46
2022-10-17T10:56:19.958Z,17.40
2022-10-17T10:58:56.386Z,17.55
2022-10-17T11:01:32.035Z,17.72
2022-10-17T11:04:15.532Z,17.70
2022-10-17T11:06:47.066Z,17.96
2022-10-17T11:09:27.877Z,18.10
2022-10-17T11:12:02.922Z,18.05
2022-10-17T11:14:41.456Z,18.21
2022-10-17T11:17:20.751Z,18.08
2022-10-17T11:19:57.380Z,17.95
2022-10-17T11:22:31.044Z,17.89
2022-10-17T11:25:04.832Z,17.82
2022-10-17T11:27:35.349Z,17.79
2022-10-17T11:30:04.721Z,17.77
2022-10-17T11:32:38.333Z,17.79
2022-10-17T11:35:16.193Z,17.93
2022-10-17T11:37:51.098Z,17.83
2022-10-17T11:40:24.615Z,17.70
2022-10-17T11:42:59.002Z,17.60
2022-10-17T11:45:30.733Z,17.56
2022-10-17T11:48:04.068Z,17.52
2022-10-17T11:53:27.088Z,17.50
2022-10-17T11:55:59.133Z,17.55
2022-10-17T11:58:36.784Z,17.55
2022-10-17T12:01:16.453Z,17.55
2022-10-17T12:03:57.679Z,17.55
2022-10-17T12:06:38.858Z,17.76
2022-10-17T12:09:17.492Z,17.78
2022-10-17T12:11:54.018Z,17.83
2022-10-17T12:14:40.763Z,17.89
2022-10-17T12:17:30.670Z,17.83
2022-10-17T12:20:31.564Z,17.83
2022-10-17T12:23:18.861Z,17.77
2022-10-17T12:25:55.907Z,17.76
2022-10-17T12:28:30.231Z,17.92
2022-10-17T12:31:05.765Z,17.85
2022-10-17T12:33:37.894Z,17.98
2022-10-17T12:36:39.752Z,18.04
2022-10-17T12:39:51.343Z,18.00
2022-10-17T12:42:46.940Z,18.02
2022-10-17T12:45:51.387Z,18.12
2022-10-17T12:48:53.102Z,18.18
2022-10-17T12:51:35.351Z,18.22
2022-10-17T12:54:13.098Z,18.08
2022-10-17T12:56:43.823Z,18.21
2022-10-17T12:59:17.812Z,18.24
2022-10-17T13:01:48.530Z,18.25
2022-10-17T13:04:17.837Z,18.28
2022-10-17T13:06:48.288Z,18.39
2022-10-17T13:09:24.818Z,18.49
2022-10-17T13:11:53.925Z,18.48
2022-10-17T13:14:24.473Z,18.63
2022-10-17T13:16:54.580Z,18.58
2022-10-17T13:19:25.223Z,18.46
2022-10-17T13:21:56.170Z,18.39
2022-10-17T13:24:30.274Z,18.32
2022-10-17T13:26:59.242Z,18.39
2022-10-17T13:29:32.058Z,18.37
2022-10-17T13:32:02.464Z,18.30
2022-10-17T13:34:31.379Z,18.33
2022-10-17T13:37:01.742Z,18.37
2022-10-17T13:39:52.497Z,18.39
2022-10-17T13:42:26.203Z,18.48
2022-10-17T13:44:56.774Z,18.66
2022-10-17T13:47:27.270Z,18.78
2022-10-17T13:49:56.515Z,18.74
2022-10-17T13:52:29.769Z,18.74
2022-10-17T13:55:08.672Z,18.72
2022-10-17T13:57:36.782Z,18.64
2022-10-17T14:00:12.486Z,18.59
2022-10-17T14:02:42.487Z,18.56
2022-10-17T14:05:18.581Z,18.40
2022-10-17T14:10:43.943Z,18.48
2022-10-17T14:13:22.770Z,18.51
2022-10-17T14:15:53.706Z,18.49
2022-10-17T14:18:25.958Z,18.51
2022-10-17T14:21:32.122Z,18.55
2022-10-17T14:23:44.746Z,18.50
2022-10-17T14:26:16.067Z,18.59
2022-10-17T14:28:46.623Z,18.66
2022-10-17T14:31:27.123Z,18.65
2022-10-17T14:33:55.944Z,18.64
2022-10-17T14:36:34.163Z,18.52
2022-10-17T14:39:03.537Z,18.51
2022-10-17T14:41:42.748Z,18.50
2022-10-17T14:44:20.568Z,18.58
2022-10-17T14:46:54.805Z,18.52
2022-10-17T14:49:30.033Z,18.54
2022-10-17T14:52:26.334Z,18.52
2022-10-17T14:54:54.957Z,18.53
2022-10-17T14:57:30.586Z,18.49
2022-10-17T14:59:59.294Z,18.35
2022-10-17T15:02:30.883Z,18.21
2022-10-17T15:04:59.359Z,18.21
2022-10-17T15:07:27.903Z,18.13
2022-10-17T15:09:56.031Z,18.03
2022-10-17T15:12:26.773Z,18.00
2022-10-17T15:14:55.348Z,17.96
2022-10-17T15:17:26.339Z,17.97
2022-10-17T15:19:55.989Z,17.96
2022-10-17T15:22:25.143Z,17.83
2022-10-17T15:24:53.629Z,17.77
2022-10-17T15:27:24.411Z,17.73
2022-10-17T15:29:53.191Z,17.68
2022-10-17T15:32:21.559Z,17.69
2022-10-17T15:34:49.798Z,17.66
2022-10-17T15:37:22.472Z,17.55
2022-10-17T15:39:53.597Z,17.50
2022-10-17T15:42:22.859Z,17.44
2022-10-17T15:44:51.160Z,17.43
2022-10-17T15:47:25.435Z,17.37
2022-10-17T15:49:54.049Z,17.32
2022-10-17T15:52:24.436Z,17.23
2022-10-17T15:54:53.307Z,17.18
2022-10-17T15:57:23.809Z,17.09
2022-10-17T15:59:53.367Z,17.09
2022-10-17T16:02:23.660Z,17.02
2022-10-17T16:04:52.968Z,17.02
2022-10-17T16:07:23.255Z,17.03
2022-10-17T16:09:51.448Z,17.01
2022-10-17T16:14:57.321Z,16.96
2022-10-17T16:17:25.466Z,16.95
2022-10-17T16:19:53.617Z,16.92
2022-10-17T16:22:29.160Z,16.87
2022-10-17T16:24:59.397Z,16.84
2022-10-17T16:27:27.615Z,16.82
2022-10-17T16:29:55.710Z,16.76
2022-10-17T16:32:23.890Z,16.77
2022-10-17T16:34:51.987Z,16.77
2022-10-17T16:37:20.070Z,16.67
2022-10-17T16:39:52.541Z,16.62
2022-10-17T16:42:21.366Z,16.62
2022-10-17T16:44:50.111Z,16.57
2022-10-17T16:47:19.451Z,16.54
2022-10-17T16:49:47.829Z,16.49
2022-10-17T16:52:16.908Z,16.46
2022-10-17T16:54:45.418Z,16.40
2022-10-17T16:57:14.886Z,16.41
2022-10-17T16:59:43.121Z,16.36
2022-10-17T17:02:12.127Z,16.35
2022-10-17T17:04:40.515Z,16.35
2022-10-17T17:07:08.757Z,16.35
2022-10-17T17:09:37.120Z,16.31
2022-10-17T17:12:05.444Z,16.27
2022-10-17T17:14:34.965Z,16.26
2022-10-17T17:17:03.148Z,16.20
2022-10-17T17:19:31.844Z,16.20
2022-10-17T17:22:00.035Z,16.19
2022-10-17T17:24:28.720Z,16.20
2022-10-17T17:26:58.764Z,16.16
2022-10-17T17:29:27.925Z,16.14
2022-10-17T17:31:57.458Z,16.15
2022-10-17T17:34:25.848Z,16.16
2022-10-17T17:36:54.041Z,16.17
2022-10-17T17:39:22.453Z,16.15
2022-10-17T17:41:50.723Z,16.12
2022-10-17T17:44:18.908Z,16.13
2022-10-17T17:46:47.932Z,16.14
2022-10-17T17:49:17.453Z,16.10
2022-10-17T17:51:46.740Z,16.05
2022-10-17T17:54:15.250Z,16.08
2022-10-17T17:56:43.657Z,16.07
2022-10-17T17:59:13.948Z,16.12
2022-10-17T18:01:42.733Z,16.06
2022-10-17T18:04:12.159Z,16.04
2022-10-17T18:06:41.890Z,16.03
2022-10-17T18:09:10.482Z,16.05
2022-10-17T18:11:39.591Z,16.07
2022-10-17T18:14:09.426Z,16.02
2022-10-17T18:16:38.994Z,16.04
2022-10-17T18:19:09.990Z,16.01
2022-10-17T18:21:39.032Z,16.04
2022-10-17T18:24:09.361Z,16.01
2022-10-17T18:26:37.700Z,15.99
2022-10-17T18:29:05.927Z,15.99
2022-10-17T18:31:35.975Z,15.96
2022-10-17T18:34:05.767Z,15.96
2022-10-17T18:36:35.839Z,15.93
2022-10-17T18:39:06.008Z,15.90
2022-10-17T18:41:36.319Z,15.88
2022-10-17T18:44:05.776Z,15.88
2022-10-17T18:46:40.447Z,15.83
2022-10-17T18:49:11.197Z,15.77
2022-10-17T18:51:40.083Z,15.80
2022-10-17T18:54:13.113Z,15.81
2022-10-17T18:56:42.798Z,15.80
2022-10-17T18:59:11.079Z,15.76
2022-10-17T19:01:39.609Z,15.77
2022-10-17T19:04:08.113Z,15.85
2022-10-17T19:06:36.540Z,15.84
2022-10-17T19:09:08.102Z,15.86
2022-10-17T19:11:37.965Z,15.87
2022-10-17T19:14:13.529Z,15.91
2022-10-17T19:16:44.395Z,15.87
2022-10-17T19:19:15.113Z,15.85
2022-10-17T19:21:44.053Z,15.82
2022-10-17T19:24:16.083Z,15.81
2022-10-17T19:26:45.515Z,15.77
2022-10-17T19:29:16.951Z,15.73
2022-10-17T19:31:45.742Z,15.73
2022-10-17T19:34:15.165Z,15.71
2022-10-17T19:36:44.091Z,15.62
2022-10-17T19:39:14.443Z,15.60
2022-10-17T19:41:43.964Z,15.57
2022-10-17T19:44:13.069Z,15.54
2022-10-17T19:46:44.397Z,15.54
2022-10-17T19:49:12.970Z,15.60
2022-10-17T19:51:41.156Z,15.55
2022-10-17T19:54:10.211Z,15.56
2022-10-17T19:56:38.548Z,15.55
2022-10-17T19:59:07.439Z,15.61
2022-10-17T20:01:38.870Z,15.62
2022-10-17T20:04:10.797Z,15.59
2022-10-17T20:06:40.199Z,15.60
2022-10-17T20:09:12.387Z,15.55
2022-10-17T20:11:44.082Z,15.58
2022-10-17T20:14:12.231Z,15.59
2022-10-17T20:16:40.485Z,15.54
2022-10-17T20:19:12.892Z,15.54
2022-10-17T20:21:41.074Z,15.54
2022-10-17T20:24:13.584Z,15.54
2022-10-17T20:26:42.681Z,15.52
2022-10-17T20:29:15.439Z,15.48
2022-10-17T20:31:45.419Z,15.45
2022-10-17T20:34:17.398Z,15.41
2022-10-17T20:36:47.062Z,15.41
2022-10-17T20:39:16.904Z,15.45
2022-10-17T20:41:45.808Z,15.43
2022-10-17T20:44:14.707Z,15.36
2022-10-17T20:46:52.940Z,15.31
2022-10-17T20:49:31.433Z,15.27
2022-10-17T20:51:59.744Z,15.28
2022-10-17T20:54:28.921Z,15.24
2022-10-17T20:56:59.854Z,15.23
2022-10-17T20:59:31.380Z,15.24
2022-10-17T21:01:59.593Z,15.19
2022-10-17T21:04:45.379Z,15.19
2022-10-17T21:07:16.294Z,15.14
2022-10-17T21:09:46.379Z,15.10
2022-10-17T21:12:21.744Z,15.12
2022-10-17T21:14:59.563Z,15.11
2022-10-17T21:17:27.849Z,15.11
2022-10-17T21:19:56.518Z,15.07
2022-10-17T21:22:26.092Z,15.02
2022-10-17T21:24:54.203Z,15.03
2022-10-17T21:27:22.616Z,15.00
2022-10-17T21:29:52.106Z,15.04
2022-10-17T21:32:33.359Z,15.02
2022-10-17T21:35:09.010Z,15.03
2022-10-17T21:37:39.264Z,15.04
2022-10-17T21:40:09.163Z,15.06
2022-10-17T21:42:37.495Z,15.09
2022-10-17T21:45:14.997Z,15.14
2022-10-17T21:48:11.595Z,15.15
2022-10-17T21:50:36.646Z,15.11
2022-10-17T21:53:09.615Z,15.08
2022-10-17T21:55:42.401Z,15.10
2022-10-17T21:58:16.555Z,15.15
2022-10-17T22:00:46.811Z,15.19
2022-10-17T22:03:15.237Z,15.19
2022-10-17T22:05:50.430Z,15.21
2022-10-17T22:08:22.882Z,15.24
2022-10-17T22:10:57.017Z,15.28
2022-10-17T22:13:28.034Z,15.25
2022-10-17T22:16:03.928Z,15.26
2022-10-17T22:18:32.556Z,15.26
2022-10-17T22:21:05.035Z,15.23
2022-10-17T22:23:38.326Z,15.22
2022-10-17T22:26:07.622Z,15.22
2022-10-17T22:28:36.491Z,15.15
2022-10-17T22:31:04.679Z,15.15
2022-10-17T22:33:33.412Z,15.12
2022-10-17T22:36:01.610Z,15.10
2022-10-17T22:38:30.161Z,15.09
2022-10-17T22:40:59.714Z,15.17
2022-10-17T22:43:28.176Z,15.16
2022-10-17T22:45:58.749Z,15.16
2022-10-17T22:48:27.815Z,15.13
2022-10-17T22:50:57.858Z,15.14
2022-10-17T22:53:27.047Z,15.09
2022-10-17T22:55:57.600Z,15.10
2022-10-17T22:58:28.063Z,15.08
2022-10-17T23:00:56.702Z,15.04
2022-10-17T23:03:26.212Z,15.04
2022-10-17T23:05:54.729Z,15.03
2022-10-17T23:08:22.952Z,15.03
2022-10-17T23:10:51.143Z,14.99
2022-10-17T23:13:19.931Z,15.00
2022-10-17T23:15:51.617Z,14.98
2022-10-17T23:18:21.242Z,15.02
2022-10-17T23:20:49.890Z,14.95
2022-10-17T23:23:18.791Z,14.89
2022-10-17T23:25:47.020Z,14.86
2022-10-17T23:28:15.861Z,14.82
2022-10-17T23:30:44.024Z,14.83
2022-10-17T23:33:14.539Z,14.83
2022-10-17T23:35:45.829Z,14.75
2022-10-17T23:38:16.382Z,14.85
2022-10-17T23:40:44.868Z,14.94
2022-10-17T23:43:13.059Z,14.85
2022-10-17T23:48:15.587Z,14.82
2022-10-17T23:50:44.376Z,14.81
2022-10-17T23:53:12.555Z,14.82
2022-10-17T23:55:40.787Z,14.84
2022-10-17T23:58:08.907Z,14.89
